createdAt,value
2022-09-15T00:00:28.429Z,8.83
2022-09-15T00:02:59.639Z,8.62
2022-09-15T00:05:31.094Z,8.67
2022-09-15T00:08:01.204Z,8.70
2022-09-15T00:10:29.225Z,8.82
2022-09-15T00:13:02.880Z,8.73
2022-09-15T00:15:30.893Z,8.68
2022-09-15T00:17:58.934Z,8.67
2022-09-15T00:20:32.701Z,8.48
2022-09-15T00:23:02.120Z,8.76
2022-09-15T00:25:32.489Z,8.66
2022-09-15T00:28:03.546Z,8.50
2022-09-15T00:30:31.366Z,8.64
2022-09-15T00:33:02.571Z,8.57
2022-09-15T00:35:32.629Z,8.57
2022-09-15T00:38:00.523Z,8.76
2022-09-15T00:40:30.526Z,8.77
2022-09-15T00:43:00.248Z,8.74
2022-09-15T00:45:29.913Z,8.61
2022-09-15T00:48:00.082Z,8.69
2022-09-15T00:50:29.977Z,8.61
2022-09-15T00:53:01.667Z,8.51
2022-09-15T00:55:37.959Z,8.57
2022-09-15T00:58:11.344Z,8.40
2022-09-15T01:03:38.828Z,8.35
2022-09-15T01:06:12.796Z,8.32
2022-09-15T01:08:52.915Z,8.11
2022-09-15T01:11:24.185Z,8.15
2022-09-15T01:14:00.641Z,8.07
2022-09-15T01:19:49.581Z,7.96
2022-09-15T01:22:33.728Z,7.97
2022-09-15T01:25:11.645Z,7.94
2022-09-15T01:28:02.639Z,7.77
2022-09-15T01:30:39.050Z,7.74
2022-09-15T01:33:16.249Z,7.82
2022-09-15T01:35:55.279Z,7.83
2022-09-15T01:38:32.445Z,7.81
2022-09-15T01:41:12.442Z,7.83
2022-09-15T01:43:52.197Z,7.81
2022-09-15T01:46:28.914Z,7.85
2022-09-15T01:48:58.122Z,7.84
2022-09-15T01:51:29.519Z,7.87
2022-09-15T01:54:02.867Z,7.80
2022-09-15T01:56:33.072Z,7.72
2022-09-15T01:59:01.008Z,7.93
2022-09-15T02:01:42.806Z,8.16
2022-09-15T02:04:18.059Z,7.97
2022-09-15T02:06:56.081Z,8.15
2022-09-15T02:09:29.281Z,8.10
2022-09-15T02:12:07.953Z,8.36
2022-09-15T02:14:49.010Z,8.31
2022-09-15T02:17:25.309Z,8.19
2022-09-15T02:19:56.552Z,8.08
2022-09-15T02:22:30.201Z,8.14
2022-09-15T02:25:02.256Z,8.08
2022-09-15T02:27:39.589Z,8.15
2022-09-15T02:30:11.738Z,8.11
2022-09-15T02:32:50.464Z,8.07
2022-09-15T02:35:18.620Z,8.04
2022-09-15T02:37:49.658Z,7.99
2022-09-15T02:40:19.668Z,7.96
2022-09-15T02:42:57.846Z,7.90
2022-09-15T02:45:28.908Z,7.89
2022-09-15T02:48:00.294Z,7.79
2022-09-15T02:50:28.656Z,7.72
2022-09-15T02:52:59.145Z,7.68
2022-09-15T02:55:29.435Z,7.72
2022-09-15T02:57:58.500Z,7.54
2022-09-15T03:00:28.899Z,7.53
2022-09-15T03:03:00.009Z,7.59
2022-09-15T03:05:30.412Z,7.49
2022-09-15T03:07:58.420Z,7.58
2022-09-15T03:10:26.796Z,7.60
2022-09-15T03:12:57.874Z,7.45
2022-09-15T03:15:27.433Z,7.41
2022-09-15T03:18:00.657Z,7.38
2022-09-15T03:20:30.349Z,7.46
2022-09-15T03:23:00.360Z,7.32
2022-09-15T03:25:28.311Z,7.30
2022-09-15T03:27:56.168Z,7.29
2022-09-15T03:30:26.426Z,7.34
2022-09-15T03:32:56.226Z,7.34
2022-09-15T03:35:25.440Z,7.37
2022-09-15T03:37:55.437Z,7.38
2022-09-15T03:40:25.213Z,7.30
2022-09-15T03:42:53.070Z,7.25
2022-09-15T03:45:23.077Z,7.30
2022-09-15T03:47:52.769Z,7.21
2022-09-15T03:50:22.804Z,7.21
2022-09-15T03:52:54.571Z,7.33
2022-09-15T03:55:30.707Z,7.30
2022-09-15T03:57:58.471Z,7.29
2022-09-15T04:00:26.270Z,7.21
2022-09-15T04:02:58.197Z,7.15
2022-09-15T04:05:28.147Z,7.24
2022-09-15T04:07:57.336Z,7.38
2022-09-15T04:10:27.265Z,7.32
2022-09-15T04:12:55.265Z,7.39
2022-09-15T04:15:23.784Z,7.44
2022-09-15T04:17:54.117Z,7.52
2022-09-15T04:20:24.227Z,7.59
2022-09-15T04:22:52.079Z,7.58
2022-09-15T04:25:23.108Z,7.71
2022-09-15T04:27:53.034Z,7.67
2022-09-15T04:30:21.006Z,7.83
2022-09-15T04:32:51.853Z,7.92
2022-09-15T04:35:22.042Z,7.87
2022-09-15T04:37:49.876Z,7.91
2022-09-15T04:40:19.696Z,7.95
2022-09-15T04:42:49.553Z,8.12
2022-09-15T04:45:17.490Z,8.13
2022-09-15T04:47:47.638Z,8.23
2022-09-15T04:50:17.814Z,8.32
2022-09-15T04:52:45.648Z,8.42
2022-09-15T04:55:15.461Z,8.48
2022-09-15T04:57:46.383Z,8.63
2022-09-15T05:00:18.783Z,8.61
2022-09-15T05:02:48.721Z,8.57
2022-09-15T05:05:16.556Z,8.62
2022-09-15T05:07:46.286Z,8.87
2022-09-15T05:10:16.815Z,8.91
2022-09-15T05:12:44.427Z,8.91
2022-09-15T05:15:18.059Z,8.98
2022-09-15T05:17:50.169Z,8.88
2022-09-15T05:20:20.868Z,9.10
2022-09-15T05:22:50.802Z,9.22
2022-09-15T05:25:18.563Z,9.24
2022-09-15T05:27:48.326Z,9.26
2022-09-15T05:30:45.480Z,9.22
2022-09-15T05:33:13.433Z,9.43
2022-09-15T05:35:52.586Z,9.58
2022-09-15T05:38:26.204Z,9.67
2022-09-15T05:41:02.387Z,9.73
2022-09-15T05:43:42.365Z,9.97
2022-09-15T05:46:11.845Z,10.15
2022-09-15T05:48:58.819Z,10.26
2022-09-15T05:51:28.568Z,10.63
2022-09-15T05:54:02.522Z,10.73
2022-09-15T05:56:31.312Z,10.76
2022-09-15T05:59:01.313Z,10.96
2022-09-15T06:01:31.460Z,11.08
2022-09-15T06:04:01.607Z,11.03
2022-09-15T06:06:38.872Z,11.16
2022-09-15T06:09:12.683Z,11.13
2022-09-15T06:11:45.134Z,11.26
2022-09-15T06:14:14.481Z,11.27
2022-09-15T06:16:42.303Z,11.34
2022-09-15T06:19:16.991Z,11.28
2022-09-15T06:21:45.277Z,11.20
2022-09-15T06:24:16.484Z,11.36
2022-09-15T06:26:45.258Z,11.60
2022-09-15T06:29:13.906Z,11.68
2022-09-15T06:31:43.961Z,11.60
2022-09-15T06:34:13.352Z,11.38
2022-09-15T06:36:41.452Z,11.37
2022-09-15T06:39:11.550Z,11.50
2022-09-15T06:42:01.219Z,11.54
2022-09-15T06:44:31.174Z,11.43
2022-09-15T06:47:01.823Z,11.82
2022-09-15T06:49:31.221Z,12.13
2022-09-15T06:52:02.717Z,12.53
2022-09-15T06:54:31.405Z,13.02
2022-09-15T06:56:59.821Z,13.51
2022-09-15T06:59:30.134Z,13.49
2022-09-15T07:02:02.678Z,13.87
2022-09-15T07:04:39.812Z,14.21
2022-09-15T07:07:09.264Z,14.19
2022-09-15T07:09:41.278Z,14.43
2022-09-15T07:12:12.018Z,14.12
2022-09-15T07:14:39.899Z,13.79
2022-09-15T07:17:10.093Z,13.34
2022-09-15T07:19:43.081Z,13.40
2022-09-15T07:22:12.033Z,13.58
2022-09-15T07:24:41.918Z,13.63
2022-09-15T07:27:09.977Z,13.65
2022-09-15T07:29:39.958Z,13.35
2022-09-15T07:32:10.372Z,13.64
2022-09-15T07:34:39.744Z,13.19
2022-09-15T07:37:08.737Z,12.84
2022-09-15T07:39:38.807Z,12.74
2022-09-15T07:42:07.665Z,12.58
2022-09-15T07:44:35.795Z,13.17
2022-09-15T07:47:05.779Z,13.17
2022-09-15T07:49:35.579Z,13.14
2022-09-15T07:52:04.957Z,12.88
2022-09-15T07:54:32.901Z,13.01
2022-09-15T07:57:02.768Z,12.94
2022-09-15T07:59:31.067Z,13.53
2022-09-15T08:01:58.989Z,13.47
2022-09-15T08:04:27.012Z,13.23
2022-09-15T08:06:54.829Z,12.82
2022-09-15T08:09:26.281Z,12.52
2022-09-15T08:11:55.991Z,12.28
2022-09-15T08:14:24.113Z,12.09
2022-09-15T08:16:52.004Z,11.96
2022-09-15T08:19:20.885Z,12.00
2022-09-15T08:21:48.951Z,12.29
2022-09-15T08:24:16.914Z,11.92
2022-09-15T08:26:47.188Z,11.93
2022-09-15T08:29:15.326Z,12.09
2022-09-15T08:31:45.168Z,12.29
2022-09-15T08:34:13.929Z,12.31
2022-09-15T08:36:42.095Z,12.36
2022-09-15T08:39:10.784Z,12.56
2022-09-15T08:41:46.247Z,12.14
2022-09-15T08:44:26.297Z,12.02
2022-09-15T08:47:12.785Z,12.35
2022-09-15T08:49:52.030Z,12.40
2022-09-15T08:52:29.359Z,12.19
2022-09-15T08:55:03.193Z,12.30
2022-09-15T08:57:33.532Z,12.22
2022-09-15T09:00:05.678Z,12.38
2022-09-15T09:02:58.825Z,12.57
2022-09-15T09:05:40.836Z,12.75
2022-09-15T09:08:38.631Z,12.72
2022-09-15T09:11:17.232Z,12.47
2022-09-15T09:13:51.455Z,12.06
2022-09-15T09:16:34.063Z,12.16
2022-09-15T09:19:12.438Z,12.06
2022-09-15T09:21:45.018Z,11.97
2022-09-15T09:24:19.198Z,12.04
2022-09-15T09:26:54.375Z,11.98
2022-09-15T09:29:33.250Z,11.94
2022-09-15T09:32:04.194Z,11.93
2022-09-15T09:34:38.358Z,12.00
2022-09-15T09:37:11.982Z,11.97
2022-09-15T09:39:39.881Z,12.09
2022-09-15T09:42:15.367Z,12.25
2022-09-15T09:44:44.005Z,12.07
2022-09-15T09:47:13.679Z,11.84
2022-09-15T09:49:47.057Z,11.68
2022-09-15T09:52:33.398Z,11.60
2022-09-15T09:55:04.570Z,11.77
2022-09-15T09:57:40.701Z,11.71
2022-09-15T10:00:34.827Z,12.06
2022-09-15T10:03:12.804Z,12.37
2022-09-15T10:05:40.978Z,12.64
2022-09-15T10:08:16.885Z,12.50
2022-09-15T10:10:54.139Z,12.26
2022-09-15T10:13:22.379Z,12.37
2022-09-15T10:15:57.876Z,12.33
2022-09-15T10:18:33.815Z,12.31
2022-09-15T10:21:04.771Z,12.33
2022-09-15T10:23:34.491Z,12.05
2022-09-15T10:26:24.266Z,12.28
2022-09-15T10:29:13.715Z,12.14
2022-09-15T10:32:05.795Z,11.91
2022-09-15T10:34:37.586Z,11.92
2022-09-15T10:37:42.799Z,11.89
2022-09-15T10:40:38.384Z,12.02
2022-09-15T10:43:33.337Z,12.53
2022-09-15T10:46:05.199Z,12.24
2022-09-15T10:48:54.384Z,12.54
2022-09-15T10:51:35.313Z,12.46
2022-09-15T10:54:25.867Z,12.65
2022-09-15T10:56:59.050Z,12.36
2022-09-15T10:59:47.460Z,12.14
2022-09-15T11:02:57.731Z,12.11
2022-09-15T11:05:34.589Z,12.39
2022-09-15T11:08:22.730Z,12.64
2022-09-15T11:10:59.718Z,12.20
2022-09-15T11:13:39.421Z,12.46
2022-09-15T11:16:30.449Z,12.62
2022-09-15T11:19:23.235Z,12.89
2022-09-15T11:21:54.839Z,12.27
2022-09-15T11:24:45.685Z,12.22
2022-09-15T11:27:23.253Z,12.18
2022-09-15T11:30:03.457Z,12.34
2022-09-15T11:32:39.875Z,12.43
2022-09-15T11:35:32.505Z,12.59
2022-09-15T11:38:13.044Z,12.72
2022-09-15T11:40:49.026Z,13.05
2022-09-15T11:43:25.306Z,13.06
2022-09-15T11:45:59.927Z,12.66
2022-09-15T11:48:34.911Z,12.53
2022-09-15T11:51:04.183Z,12.58
2022-09-15T11:53:39.962Z,12.41
2022-09-15T11:56:16.927Z,12.33
2022-09-15T11:59:03.991Z,12.10
2022-09-15T12:01:40.108Z,11.99
2022-09-15T12:04:14.223Z,11.91
2022-09-15T12:06:47.355Z,11.88
2022-09-15T12:09:19.864Z,11.95
2022-09-15T12:11:56.170Z,11.96
2022-09-15T12:14:31.044Z,11.89
2022-09-15T12:17:04.795Z,11.82
2022-09-15T12:19:59.602Z,12.07
2022-09-15T12:22:36.069Z,11.85
2022-09-15T12:25:15.409Z,11.95
2022-09-15T12:31:43.828Z,12.09
2022-09-15T12:34:56.642Z,12.12
2022-09-15T12:41:11.821Z,12.15
2022-09-15T12:44:38.977Z,12.20
2022-09-15T12:51:02.795Z,12.36
2022-09-15T12:53:37.365Z,12.31
2022-09-15T12:56:56.964Z,12.26
2022-09-15T13:00:03.573Z,12.39
2022-09-15T13:03:11.672Z,12.24
2022-09-15T13:06:18.295Z,12.18
2022-09-15T13:08:49.460Z,12.23
2022-09-15T13:11:29.207Z,12.11
2022-09-15T13:14:20.025Z,12.31
2022-09-15T13:17:16.536Z,12.24
2022-09-15T13:20:22.718Z,12.20
2022-09-15T13:22:57.238Z,12.03
2022-09-15T13:25:29.556Z,12.03
2022-09-15T13:28:01.939Z,12.33
2022-09-15T13:30:51.276Z,12.21
2022-09-15T13:40:54.427Z,12.55
2022-09-15T13:44:06.509Z,12.72
2022-09-15T13:46:48.440Z,12.70
2022-09-15T13:49:48.811Z,12.60
2022-09-15T13:52:34.530Z,12.44
2022-09-15T13:55:11.616Z,12.51
2022-09-15T13:58:56.526Z,12.62
2022-09-15T14:04:53.047Z,12.83
2022-09-15T14:07:34.650Z,12.88
2022-09-15T14:10:10.455Z,13.02
2022-09-15T14:13:04.121Z,13.09
2022-09-15T14:16:43.495Z,13.17
2022-09-15T14:19:33.501Z,13.03
2022-09-15T14:22:20.059Z,12.87
2022-09-15T14:28:20.284Z,12.80
2022-09-15T14:30:50.553Z,12.86
2022-09-15T14:33:19.024Z,12.72
2022-09-15T14:35:48.408Z,12.65
2022-09-15T14:38:25.893Z,12.58
2022-09-15T14:40:57.051Z,12.26
2022-09-15T14:43:27.015Z,12.24
2022-09-15T14:46:04.369Z,12.23
2022-09-15T14:48:38.386Z,12.26
2022-09-15T14:51:21.082Z,12.56
2022-09-15T14:53:54.797Z,12.69
2022-09-15T14:56:28.425Z,12.97
2022-09-15T14:58:59.809Z,12.86
2022-09-15T15:01:42.637Z,12.81
2022-09-15T15:04:16.311Z,12.95
2022-09-15T15:06:53.451Z,12.65
2022-09-15T15:09:29.027Z,12.33
2022-09-15T15:12:03.628Z,12.36
2022-09-15T15:14:31.669Z,12.55
2022-09-15T15:17:02.104Z,12.25
2022-09-15T15:19:38.200Z,12.48
2022-09-15T15:22:21.960Z,12.47
2022-09-15T15:24:55.407Z,12.44
2022-09-15T15:27:43.135Z,12.56
2022-09-15T15:30:44.543Z,12.42
2022-09-15T15:33:25.231Z,12.48
2022-09-15T15:36:11.754Z,12.54
2022-09-15T15:38:47.301Z,12.46
2022-09-15T15:41:25.122Z,12.45
2022-09-15T15:44:03.281Z,12.50
2022-09-15T15:46:55.004Z,12.47
2022-09-15T15:49:27.407Z,12.23
2022-09-15T15:51:58.873Z,12.34
2022-09-15T15:54:28.579Z,12.25
2022-09-15T15:56:56.878Z,12.31
2022-09-15T15:59:29.377Z,12.26
2022-09-15T16:01:59.652Z,12.07
2022-09-15T16:04:27.583Z,11.79
2022-09-15T16:06:59.676Z,11.74
2022-09-15T16:09:29.106Z,11.81
2022-09-15T16:14:29.429Z,11.77
2022-09-15T16:17:00.184Z,11.83
2022-09-15T16:19:30.240Z,11.80
2022-09-15T16:22:01.069Z,11.79
2022-09-15T16:24:30.220Z,11.77
2022-09-15T16:26:58.202Z,11.76
2022-09-15T16:29:38.190Z,11.84
2022-09-15T16:32:08.814Z,11.75
2022-09-15T16:34:36.711Z,11.75
2022-09-15T16:37:06.768Z,11.65
2022-09-15T16:39:37.891Z,11.66
2022-09-15T16:42:06.299Z,11.67
2022-09-15T16:44:36.408Z,11.62
2022-09-15T16:47:06.329Z,11.44
2022-09-15T16:49:39.692Z,11.43
2022-09-15T16:52:09.813Z,11.47
2022-09-15T16:54:39.212Z,11.55
2022-09-15T16:57:07.219Z,11.48
2022-09-15T16:59:36.149Z,11.46
2022-09-15T17:02:04.045Z,11.34
2022-09-15T17:04:31.961Z,11.34
2022-09-15T17:06:59.886Z,11.31
2022-09-15T17:09:27.682Z,11.31
2022-09-15T17:11:59.617Z,11.30
2022-09-15T17:14:27.599Z,11.17
2022-09-15T17:16:55.437Z,11.18
2022-09-15T17:19:23.733Z,11.08
2022-09-15T17:21:52.774Z,11.22
2022-09-15T17:24:20.677Z,11.14
2022-09-15T17:26:48.643Z,11.17
2022-09-15T17:29:17.960Z,11.22
2022-09-15T17:31:45.840Z,11.11
2022-09-15T17:34:15.529Z,11.24
2022-09-15T17:36:46.385Z,11.32
2022-09-15T17:39:14.254Z,11.40
2022-09-15T17:41:46.686Z,11.15
2022-09-15T17:44:14.626Z,11.16
2022-09-15T17:46:43.921Z,11.14
2022-09-15T17:49:12.034Z,11.04
2022-09-15T17:51:42.079Z,10.87
2022-09-15T17:54:11.815Z,10.88
2022-09-15T17:56:41.653Z,10.80
2022-09-15T17:59:15.669Z,10.78
2022-09-15T18:01:48.252Z,10.79
2022-09-15T18:04:16.427Z,10.77
2022-09-15T18:06:45.717Z,10.68
2022-09-15T18:09:15.252Z,10.79
2022-09-15T18:11:43.245Z,10.57
2022-09-15T18:14:12.431Z,10.55
2022-09-15T18:16:43.687Z,10.52
2022-09-15T18:19:14.660Z,10.51
2022-09-15T18:21:42.602Z,10.38
2022-09-15T18:24:13.713Z,10.36
2022-09-15T18:26:44.451Z,10.49
2022-09-15T18:29:12.590Z,10.24
2022-09-15T18:31:40.763Z,10.23
2022-09-15T18:34:14.689Z,10.31
2022-09-15T18:36:44.720Z,10.42
2022-09-15T18:39:17.084Z,10.27
2022-09-15T18:41:45.403Z,10.13
2022-09-15T18:44:14.422Z,10.13
2022-09-15T18:46:43.330Z,9.98
2022-09-15T18:49:19.331Z,9.99
2022-09-15T18:51:51.853Z,9.91
2022-09-15T18:54:25.322Z,9.98
2022-09-15T18:56:55.284Z,9.71
2022-09-15T18:59:30.918Z,9.75
2022-09-15T19:02:02.365Z,9.90
2022-09-15T19:04:40.644Z,9.76
2022-09-15T19:07:10.389Z,9.85
2022-09-15T19:09:42.024Z,9.60
2022-09-15T19:12:15.404Z,9.56
2022-09-15T19:14:54.444Z,9.43
2022-09-15T19:18:02.793Z,9.29
2022-09-15T19:21:13.084Z,9.32
2022-09-15T19:27:21.255Z,9.27
2022-09-15T19:29:51.973Z,9.23
2022-09-15T19:32:30.472Z,9.18
2022-09-15T19:35:07.977Z,9.13
2022-09-15T19:37:51.439Z,8.90
2022-09-15T19:40:32.214Z,8.82
2022-09-15T19:43:22.449Z,8.76
2022-09-15T19:46:17.326Z,8.59
2022-09-15T19:49:06.962Z,8.61
2022-09-15T19:52:04.366Z,8.54
2022-09-15T19:55:57.698Z,8.69
2022-09-15T19:59:07.032Z,8.62
2022-09-15T20:02:15.475Z,8.48
2022-09-15T20:12:33.030Z,8.41
2022-09-15T20:15:20.723Z,8.36
2022-09-15T20:18:03.263Z,8.30
2022-09-15T20:20:46.925Z,8.43
2022-09-15T20:23:35.738Z,8.46
2022-09-15T20:26:15.721Z,8.44
2022-09-15T20:29:02.690Z,8.36
2022-09-15T20:34:34.122Z,8.13
2022-09-15T20:37:13.352Z,8.17
2022-09-15T20:39:50.623Z,8.33
2022-09-15T20:42:24.770Z,8.31
2022-09-15T20:45:09.282Z,8.16
2022-09-15T20:47:58.454Z,8.22
2022-09-15T20:50:39.449Z,8.26
2022-09-15T20:53:36.104Z,8.34
2022-09-15T20:56:16.406Z,8.40
2022-09-15T20:59:04.073Z,8.34
2022-09-15T21:02:08.094Z,8.42
2022-09-15T21:04:56.422Z,8.49
2022-09-15T21:07:55.926Z,8.40
2022-09-15T21:10:37.551Z,8.30
2022-09-15T21:13:33.273Z,8.35
2022-09-15T21:16:23.391Z,8.41
2022-09-15T21:19:26.970Z,8.47
2022-09-15T21:22:13.510Z,8.49
2022-09-15T21:24:49.977Z,8.53
2022-09-15T21:27:37.047Z,8.65
2022-09-15T21:33:04.277Z,8.60
2022-09-15T21:35:59.550Z,8.57
2022-09-15T21:38:47.655Z,8.69
2022-09-15T21:41:27.402Z,8.60
2022-09-15T21:44:10.989Z,8.63
2022-09-15T21:46:49.904Z,8.67
2022-09-15T21:49:28.299Z,8.81
2022-09-15T21:52:15.569Z,8.85
2022-09-15T21:55:00.878Z,8.88
2022-09-15T21:57:47.750Z,8.92
2022-09-15T22:00:30.255Z,9.06
2022-09-15T22:03:07.058Z,9.07
2022-09-15T22:05:43.807Z,9.01
2022-09-15T22:08:23.396Z,9.21
2022-09-15T22:11:07.872Z,9.14
2022-09-15T22:13:51.067Z,9.25
2022-09-15T22:16:37.749Z,9.23
2022-09-15T22:19:25.600Z,9.27
2022-09-15T22:22:45.085Z,9.37
2022-09-15T22:25:35.609Z,9.45
2022-09-15T22:28:31.327Z,9.35
2022-09-15T22:31:29.533Z,9.47
2022-09-15T22:34:07.731Z,9.57
2022-09-15T22:36:51.743Z,9.55
2022-09-15T22:39:57.477Z,9.51
2022-09-15T22:42:42.831Z,9.34
2022-09-15T22:45:29.629Z,9.28
2022-09-15T22:48:18.343Z,9.31
2022-09-15T22:51:12.659Z,9.28
2022-09-15T22:54:02.991Z,9.41
2022-09-15T22:56:53.118Z,9.42
2022-09-15T22:59:45.920Z,9.47
2022-09-15T23:02:46.748Z,9.48
2022-09-15T23:05:40.035Z,9.51
2022-09-15T23:08:27.007Z,9.41
2022-09-15T23:11:24.511Z,9.50
2022-09-15T23:14:38.862Z,9.41
2022-09-15T23:17:37.331Z,9.46
2022-09-15T23:20:43.609Z,9.48
2022-09-15T23:23:23.078Z,9.48
2022-09-15T23:26:03.708Z,9.46
2022-09-15T23:28:56.899Z,9.59
2022-09-15T23:31:53.086Z,9.63
2022-09-15T23:34:51.649Z,9.51
2022-09-15T23:37:35.493Z,9.31
2022-09-15T23:40:16.544Z,9.28
2022-09-15T23:43:24.397Z,9.41
2022-09-15T23:46:40.344Z,9.27
2022-09-15T23:49:37.533Z,9.32
2022-09-15T23:52:21.864Z,9.42
2022-09-15T23:55:24.262Z,9.46
2022-09-15T23:58:20.053Z,9.56
